Time;durP1;ratioP1;P1;durP2;ratioP2;P2;SDS_P1;SDS_P2;PMS_P1;PMS_P2;Temp;Humidity;BMP_temperature;BMP_pressure;BME280_temperature;BME280_humidity;BME280_pressure;Samples;Min_cycle;Max_cycle;Signal;HPM_P1;HPM_P2
2021/12/09 00:01:40;;;;;;;;;;;;;;;7.30;57.49;93818.66;5034525;28;20556;-71
2021/12/09 00:04:11;;;;;;;14.23;12.73;;;;;;;7.69;56.48;93835.38;5030848;28;19913;-73
2021/12/09 00:06:37;;;;;;;14.27;12.75;;;;;;;7.72;55.82;93839.22;5031179;28;20017;-71
2021/12/09 00:09:10;;;;;;;14.57;13.07;;;;;;;7.78;54.98;93846.69;5030723;28;20075;-71
2021/12/09 00:11:43;;;;;;;13.35;11.95;;;;;;;7.50;55.75;93843.66;5030624;28;20102;-71
2021/12/09 00:14:10;;;;;;;13.48;12.18;;;;;;;7.66;55.91;93838.63;5029495;28;20368;-71
2021/12/09 00:16:36;;;;;;;14.25;12.75;;;;;;;7.45;56.65;93837.75;5039104;28;20028;-71
2021/12/09 00:19:01;;;;;;;14.20;12.70;;;;;;;6.92;57.24;93837.06;5033348;28;20033;-72
2021/12/09 00:21:27;;;;;;;13.30;12.00;;;;;;;7.21;57.34;93832.97;5030571;28;20095;-72
2021/12/09 00:23:52;;;;;;;12.75;11.45;;;;;;;7.06;57.97;93825.53;5030629;28;20059;-72
2021/12/09 00:26:17;;;;;;;14.40;12.90;;;;;;;5.95;59.91;93815.38;5030654;28;20093;-72
2021/12/09 00:28:43;;;;;;;14.13;12.65;;;;;;;5.90;61.08;93818.13;5030651;28;20022;-72
2021/12/09 00:31:09;;;;;;;14.50;13.05;;;;;;;5.70;62.08;93830.78;5033351;28;20051;-71
2021/12/09 00:33:41;;;;;;;14.52;13.05;;;;;;;6.29;60.75;93842.94;5030064;28;20104;-71
2021/12/09 00:36:06;;;;;;;15.23;13.60;;;;;;;6.80;59.34;93828.22;5030491;28;20122;-71
2021/12/09 00:38:38;;;;;;;15.15;13.60;;;;;;;6.30;60.55;93831.31;5030442;28;20064;-71
2021/12/09 00:41:07;;;;;;;15.05;13.00;;;;;;;6.34;60.26;93833.00;5030282;28;20112;-72
2021/12/09 00:43:32;;;;;;;14.13;12.68;;;;;;;5.66;62.53;93842.25;5030067;28;20056;-71
2021/12/09 00:45:58;;;;;;;15.35;13.07;;;;;;;5.99;61.47;93855.91;5033580;28;20075;-72
2021/12/09 00:48:25;;;;;;;14.30;12.80;;;;;;;5.76;62.03;93843.84;5033187;28;20017;-73
2021/12/09 00:50:52;;;;;;;14.65;13.00;;;;;;;6.03;61.93;93862.13;5034094;28;20036;-72
2021/12/09 00:53:17;;;;;;;13.15;11.65;;;;;;;5.04;64.12;93850.13;5029725;28;20107;-73
2021/12/09 00:55:43;;;;;;;16.27;13.48;;;;;;;5.10;64.03;93836.53;5027957;28;20669;-73
2021/12/09 00:58:08;;;;;;;13.27;11.85;;;;;;;5.03;64.66;93849.34;5030116;28;20025;-71
2021/12/09 01:00:34;;;;;;;15.32;12.68;;;;;;;4.81;65.21;93844.88;5029702;28;20068;-71
2021/12/09 01:03:00;;;;;;;13.65;12.00;;;;;;;4.68;66.74;93841.19;5036474;28;20029;-71
2021/12/09 01:05:27;;;;;;;12.73;10.95;;;;;;;4.56;66.90;93855.97;5028676;28;20037;-72
2021/12/09 01:07:52;;;;;;;16.83;12.10;;;;;;;5.11;65.78;93847.84;5029934;28;20028;-72
2021/12/09 01:10:18;;;;;;;13.73;12.05;;;;;;;5.13;64.85;93853.63;5029786;28;20029;-71
2021/12/09 01:12:45;;;;;;;13.52;12.02;;;;;;;5.09;65.16;93850.00;5028291;28;20021;-71
2021/12/09 01:15:14;;;;;;;13.90;11.45;;;;;;;4.79;66.89;93868.09;5029301;28;20040;-72
2021/12/09 01:17:40;;;;;;;14.75;11.38;;;;;;;4.45;68.04;93876.47;5041714;28;20480;-72
2021/12/09 01:20:08;;;;;;;13.27;11.43;;;;;;;4.78;66.46;93871.81;5029536;28;20049;-71
2021/12/09 01:22:39;;;;;;;20.77;13.68;;;;;;;4.51;67.58;93869.25;5029524;28;20029;-71
2021/12/09 01:25:07;;;;;;;19.83;13.30;;;;;;;4.31;68.41;93852.03;5030048;28;20017;-71
2021/12/09 01:27:35;;;;;;;24.52;14.68;;;;;;;4.67;66.85;93829.13;5028114;28;20462;-71
2021/12/09 01:30:07;;;;;;;27.58;16.58;;;;;;;5.06;65.73;93832.16;5027497;28;20021;-71
2021/12/09 01:32:33;;;;;;;29.00;17.10;;;;;;;5.66;64.37;93836.97;5032252;28;20359;-71
2021/12/09 01:34:59;;;;;;;20.27;14.93;;;;;;;5.00;65.05;93801.75;5031523;28;20029;-71
2021/12/09 01:37:24;;;;;;;27.30;15.95;;;;;;;5.16;64.89;93851.13;5028606;28;20033;-70
2021/12/09 01:39:50;;;;;;;21.00;14.52;;;;;;;5.32;65.32;93837.56;5029298;28;20026;-72
2021/12/09 01:42:17;;;;;;;26.33;16.52;;;;;;;5.54;64.03;93845.47;5028144;28;20021;-71
2021/12/09 01:44:43;;;;;;;20.85;14.43;;;;;;;5.53;63.99;93862.38;5029713;28;20544;-71
2021/12/09 01:47:08;;;;;;;19.63;14.57;;;;;;;5.19;64.79;93866.38;5032630;28;20109;-71
2021/12/09 01:49:34;;;;;;;15.05;12.90;;;;;;;5.06;66.26;93875.09;5032816;28;20459;-71
2021/12/09 01:51:59;;;;;;;14.63;13.13;;;;;;;4.94;67.06;93880.13;5029151;28;20099;-71
2021/12/09 01:54:25;;;;;;;19.75;15.13;;;;;;;4.75;66.61;93890.06;5029319;28;20040;-73
2021/12/09 01:56:51;;;;;;;18.70;13.75;;;;;;;4.53;67.86;93902.09;5029559;28;20038;-72
2021/12/09 01:59:16;;;;;;;26.02;16.83;;;;;;;4.79;67.44;93888.38;5029289;28;20025;-72
2021/12/09 02:01:42;;;;;;;24.88;17.08;;;;;;;4.57;67.91;93903.06;5032203;28;20537;-71
2021/12/09 02:04:09;;;;;;;29.25;18.77;;;;;;;4.94;66.55;93896.72;5032943;28;20036;-71
2021/12/09 02:06:40;;;;;;;33.05;20.05;;;;;;;5.23;65.39;93898.19;5031576;28;20042;-72
2021/12/09 02:09:06;;;;;;;32.05;19.88;;;;;;;4.96;65.96;93909.59;5031839;28;20025;-72
2021/12/09 02:11:31;;;;;;;35.50;20.45;;;;;;;4.99;65.78;93901.09;5041535;28;20032;-72
2021/12/09 02:13:57;;;;;;;32.47;19.38;;;;;;;4.76;66.99;93905.56;5051723;28;20020;-72
2021/12/09 02:16:24;;;;;;;32.17;20.27;;;;;;;5.19;65.61;93898.00;5039158;28;20060;-72
2021/12/09 02:18:49;;;;;;;34.78;20.45;;;;;;;4.79;67.01;93891.03;5036975;28;20026;-72
2021/12/09 02:21:20;;;;;;;41.53;22.42;;;;;;;4.89;66.61;93904.75;5032728;28;20433;-72
2021/12/09 02:23:52;;;;;;;38.40;21.10;;;;;;;4.61;67.43;93908.53;5033268;28;20145;-74
2021/12/09 02:26:21;;;;;;;46.88;21.58;;;;;;;4.75;66.88;93903.22;5032085;28;20391;-73
2021/12/09 02:28:51;;;;;;;43.25;23.38;;;;;;;5.13;66.11;93899.19;5033427;28;20026;-72
2021/12/09 02:31:17;;;;;;;45.05;24.90;;;;;;;5.22;65.98;93901.91;5032182;28;20029;-73
2021/12/09 02:33:42;;;;;;;36.25;19.33;;;;;;;4.47;67.64;93905.94;5035293;28;20037;-74
2021/12/09 02:36:08;;;;;;;44.63;23.38;;;;;;;4.79;67.30;93906.81;5032883;28;20033;-72
2021/12/09 02:38:41;;;;;;;30.33;18.13;;;;;;;4.39;68.29;93898.72;5033070;28;20033;-73
2021/12/09 02:41:09;;;;;;;36.25;20.30;;;;;;;4.68;67.25;93907.03;5031452;28;20048;-73
2021/12/09 02:43:35;;;;;;;35.80;20.67;;;;;;;4.37;68.27;93895.59;5033333;28;20105;-74
2021/12/09 02:46:01;;;;;;;37.35;18.08;;;;;;;4.17;68.34;93871.25;5031677;28;20151;-73
2021/12/09 02:48:26;;;;;;;50.53;23.65;;;;;;;4.29;68.86;93867.34;5037124;28;20060;-73
2021/12/09 02:50:53;;;;;;;43.47;19.95;;;;;;;4.07;69.62;93884.59;5032902;28;20026;-72
2021/12/09 02:53:21;;;;;;;54.35;22.98;;;;;;;4.29;69.10;93886.53;5032843;28;20029;-72
2021/12/09 02:55:46;;;;;;;54.63;22.80;;;;;;;4.01;70.02;93885.00;5031524;28;20039;-73
2021/12/09 02:58:12;;;;;;;56.00;21.98;;;;;;;3.88;70.60;93895.22;5033204;28;20026;-73
2021/12/09 03:01:07;;;;;;;73.57;26.23;;;;;;;4.74;67.85;93894.53;5031873;28;20095;-74
2021/12/09 03:03:33;;;;;;;66.78;24.52;;;;;;;4.40;68.52;93905.53;5036559;28;20091;-74
2021/12/09 03:05:59;;;;;;;72.13;26.33;;;;;;;4.43;68.90;93920.75;5053119;28;20470;-74
2021/12/09 03:08:36;;;;;;;56.50;23.23;;;;;;;4.56;68.93;93937.63;5053575;28;20370;-74
2021/12/09 03:11:07;;;;;;;54.42;22.95;;;;;;;4.21;68.94;93928.56;5053062;28;20470;-74
2021/12/09 03:13:34;;;;;;;68.60;25.75;;;;;;;4.25;69.21;93940.06;5051374;28;20033;-73
2021/12/09 03:15:59;;;;;;;86.15;28.20;;;;;;;4.63;68.24;93933.50;5044805;28;20033;-74
2021/12/09 03:18:25;;;;;;;76.22;26.55;;;;;;;4.53;68.01;93938.97;5035786;28;20084;-72
2021/12/09 03:20:50;;;;;;;65.78;24.00;;;;;;;4.14;69.20;93921.06;5029914;28;20416;-72
2021/12/09 03:23:16;;;;;;;69.85;25.85;;;;;;;3.76;70.90;93920.47;5032827;23;20042;-62
2021/12/09 03:25:42;;;;;;;84.70;30.05;;;;;;;4.43;69.46;93944.44;5016467;28;20037;-62
2021/12/09 03:28:07;;;;;;;65.03;26.20;;;;;;;4.45;68.81;93950.19;5031533;28;20030;-62
2021/12/09 03:30:33;;;;;;;79.80;28.48;;;;;;;4.48;68.36;93931.19;5028532;28;20038;-62
2021/12/09 03:32:58;;;;;;;76.25;27.58;;;;;;;4.56;68.25;93938.41;5014876;28;20364;-61
2021/12/09 03:35:24;;;;;;;108.13;33.88;;;;;;;4.79;67.24;93952.38;5010085;28;20038;-61
2021/12/09 03:37:49;;;;;;;74.40;28.15;;;;;;;4.55;67.91;93944.72;5010442;28;20069;-62
2021/12/09 03:40:15;;;;;;;80.63;30.15;;;;;;;5.16;66.59;93943.41;5011252;28;20104;-62
2021/12/09 03:42:41;;;;;;;90.82;31.70;;;;;;;5.88;64.53;93954.88;5011292;28;20117;-62
2021/12/09 03:45:08;;;;;;;83.88;29.05;;;;;;;4.99;65.89;93939.84;5011391;28;20038;-61
2021/12/09 03:47:34;;;;;;;81.68;29.00;;;;;;;4.89;67.21;93936.38;5014607;28;20030;-61
2021/12/09 03:50:01;;;;;;;102.82;32.25;;;;;;;5.30;66.07;93937.31;5010856;28;20175;-61
2021/12/09 03:52:28;;;;;;;82.68;28.17;;;;;;;4.65;67.95;93946.34;5009922;28;20156;-61
2021/12/09 03:54:55;;;;;;;98.63;30.85;;;;;;;5.46;65.91;93949.81;5009955;28;20030;-62
2021/12/09 03:57:20;;;;;;;94.78;32.03;;;;;;;5.03;66.78;93954.78;5011286;28;20034;-62
2021/12/09 03:59:46;;;;;;;90.15;30.85;;;;;;;5.19;66.06;93963.91;5010740;28;20032;-62
2021/12/09 04:02:12;;;;;;;90.30;33.10;;;;;;;5.49;64.60;93890.44;5010304;28;20025;-62
2021/12/09 04:04:39;;;;;;;84.18;30.20;;;;;;;5.46;65.04;93939.28;5010949;28;20652;-62
2021/12/09 04:07:05;;;;;;;86.00;28.92;;;;;;;4.87;66.67;93964.09;5009753;28;20061;-62
2021/12/09 04:09:30;;;;;;;81.13;28.63;;;;;;;4.88;66.57;93950.63;5009534;28;20395;-62
2021/12/09 04:11:56;;;;;;;77.18;27.77;;;;;;;4.75;68.05;93953.28;5009423;28;20079;-61
2021/12/09 04:14:22;;;;;;;70.75;25.27;;;;;;;4.44;68.56;93938.09;5010869;28;20030;-61
2021/12/09 04:16:48;;;;;;;85.65;28.50;;;;;;;4.73;67.72;93958.06;5011611;28;20108;-62
2021/12/09 04:19:14;;;;;;;78.57;27.35;;;;;;;5.02;66.84;93970.91;5015106;28;20387;-62
2021/12/09 04:21:41;;;;;;;71.55;26.90;;;;;;;5.14;66.36;93961.38;5010240;28;20026;-62
2021/12/09 04:24:09;;;;;;;87.20;29.75;;;;;;;5.55;65.40;93970.22;5010940;28;20053;-62
2021/12/09 04:26:35;;;;;;;72.20;26.83;;;;;;;4.89;66.80;93939.00;5010729;28;20041;-62
2021/12/09 04:29:02;;;;;;;84.88;27.85;;;;;;;5.07;66.80;93962.88;5009653;28;20113;-62
2021/12/09 04:31:28;;;;;;;87.10;29.00;;;;;;;5.11;66.87;93961.19;5009638;28;20018;-62
2021/12/09 04:33:53;;;;;;;89.15;27.73;;;;;;;4.92;66.52;93953.44;5016288;28;20128;-62
2021/12/09 04:36:21;;;;;;;74.63;26.05;;;;;;;5.14;67.03;93953.47;5011045;28;20029;-62
2021/12/09 04:38:48;;;;;;;99.93;30.13;;;;;;;5.76;65.10;93938.81;5009308;28;20116;-61
2021/12/09 04:41:14;;;;;;;83.53;26.98;;;;;;;4.78;67.71;93953.47;5010218;28;20480;-62
2021/12/09 04:43:41;;;;;;;84.45;26.52;;;;;;;5.22;67.23;93968.59;5009030;28;20026;-62
2021/12/09 04:46:07;;;;;;;86.93;25.05;;;;;;;4.83;66.37;93952.59;5008695;28;20064;-63
2021/12/09 04:48:32;;;;;;;82.03;26.52;;;;;;;5.26;66.76;93986.44;5014466;28;20026;-63
2021/12/09 04:50:57;;;;;;;85.43;26.60;;;;;;;5.13;65.59;93956.41;5013549;28;20032;-63
2021/12/09 04:53:23;;;;;;;78.03;26.63;;;;;;;5.13;66.71;93972.22;4989480;28;20692;-63
2021/12/09 04:55:48;;;;;;;90.72;27.77;;;;;;;5.51;65.25;93961.34;4991161;28;20073;-63
2021/12/09 04:58:14;;;;;;;78.97;24.67;;;;;;;4.93;66.23;93957.63;4991283;28;20113;-64
2021/12/09 05:00:39;;;;;;;79.65;27.08;;;;;;;5.28;66.45;93992.97;4989630;28;20097;-62
2021/12/09 05:03:11;;;;;;;69.40;22.17;;;;;;;4.65;68.41;93999.81;5013425;28;20052;-63
2021/12/09 05:05:40;;;;;;;71.38;22.88;;;;;;;4.27;69.02;93978.19;5010512;28;20088;-62
2021/12/09 05:08:11;;;;;;;73.38;24.02;;;;;;;4.56;68.38;94000.81;5010468;28;20476;-63
2021/12/09 05:10:54;;;;;;;76.60;24.08;;;;;;;4.73;67.97;94008.13;5009965;28;20037;-63
2021/12/09 05:13:22;;;;;;;74.90;23.27;;;;;;;4.77;67.60;94009.09;5009725;28;20025;-63
2021/12/09 05:15:47;;;;;;;53.53;16.00;;;;;;;4.11;69.29;94006.63;5009609;28;20022;-64
2021/12/09 05:18:14;;;;;;;78.05;23.67;;;;;;;4.76;67.88;94018.84;5013511;28;20083;-64
2021/12/09 05:20:40;;;;;;;62.20;20.98;;;;;;;4.22;69.13;94012.50;5009393;28;20025;-64
2021/12/09 05:23:06;;;;;;;82.15;25.60;;;;;;;5.05;66.81;94002.69;5009467;28;20034;-63
2021/12/09 05:25:31;;;;;;;68.32;22.42;;;;;;;4.68;68.60;94025.56;5010051;28;20148;-65
2021/12/09 05:27:57;;;;;;;70.22;21.48;;;;;;;4.59;68.34;93998.34;5009403;28;20397;-64
2021/12/09 05:30:25;;;;;;;71.03;23.70;;;;;;;4.56;69.05;94021.88;5009619;28;20022;-64
2021/12/09 05:32:51;;;;;;;71.70;22.13;;;;;;;4.33;69.07;94026.25;5012685;28;20026;-64
2021/12/09 05:35:18;;;;;;;75.15;21.90;;;;;;;4.88;67.34;94047.34;5011882;28;20135;-65
2021/12/09 05:37:44;;;;;;;63.97;20.75;;;;;;;4.58;68.62;94057.38;5009551;28;20026;-65
2021/12/09 05:40:12;;;;;;;66.50;21.73;;;;;;;4.57;68.70;94045.28;5009206;28;20037;-65
2021/12/09 05:42:38;;;;;;;59.00;17.65;;;;;;;4.34;69.41;94077.81;5013518;28;20030;-65
2021/12/09 05:45:04;;;;;;;53.38;16.00;;;;;;;4.16;69.79;94059.19;5013725;28;20636;-65
2021/12/09 05:47:30;;;;;;;57.03;19.85;;;;;;;4.83;68.38;94073.78;5017012;28;20057;-65
2021/12/09 05:49:56;;;;;;;53.28;18.48;;;;;;;4.47;68.56;94058.66;5016884;28;20112;-65
2021/12/09 05:52:21;;;;;;;59.63;18.48;;;;;;;4.67;68.17;94070.66;5012813;28;20105;-66
2021/12/09 05:54:47;;;;;;;58.75;19.00;;;;;;;4.70;68.22;94075.31;5013559;28;20030;-64
2021/12/09 05:57:13;;;;;;;57.85;19.85;;;;;;;4.94;67.72;94085.66;5013466;28;20396;-64
2021/12/09 05:59:41;;;;;;;59.95;20.02;;;;;;;4.83;68.13;94084.31;5013058;28;20057;-63
2021/12/09 06:02:08;;;;;;;60.50;19.05;;;;;;;4.84;68.05;94078.75;5012292;28;20383;-62
2021/12/09 06:04:34;;;;;;;68.72;20.30;;;;;;;5.39;65.51;94077.91;5016849;28;20022;-64
2021/12/09 06:07:00;;;;;;;39.60;15.75;;;;;;;4.80;67.42;94090.94;5013158;28;20032;-64
2021/12/09 06:09:25;;;;;;;43.15;16.08;;;;;;;4.89;67.88;94098.94;5012916;28;20022;-64
2021/12/09 06:11:53;;;;;;;48.92;18.15;;;;;;;4.98;66.88;94086.66;5012900;28;20050;-65
2021/12/09 06:14:18;;;;;;;48.25;17.60;;;;;;;5.59;65.62;94085.38;5013122;28;20025;-58
2021/12/09 06:16:45;;;;;;;27.33;13.13;;;;;;;5.30;66.44;94054.09;5013049;28;20113;-60
2021/12/09 06:19:10;;;;;;;21.23;12.35;;;;;;;5.51;67.60;94091.34;5015377;28;20032;-64
2021/12/09 06:21:36;;;;;;;46.45;15.40;;;;;;;5.42;65.53;94091.25;5011304;28;20113;-66
2021/12/09 06:24:02;;;;;;;43.85;16.45;;;;;;;5.64;65.45;94092.41;5012827;28;20030;-65
2021/12/09 06:26:30;;;;;;;38.05;14.60;;;;;;;5.30;65.91;94093.63;5012528;28;20391;-62
2021/12/09 06:28:56;;;;;;;38.08;15.73;;;;;;;5.44;65.87;94088.34;5012767;28;20029;-62
2021/12/09 06:31:22;;;;;;;41.88;16.98;;;;;;;5.69;64.77;94071.19;5011701;28;20030;-69
2021/12/09 06:33:48;;;;;;;40.22;16.90;;;;;;;6.23;63.14;94098.44;5015171;28;20030;-67
2021/12/09 06:36:14;;;;;;;28.52;15.02;;;;;;;6.12;63.88;94086.56;5012149;28;20030;-65
2021/12/09 06:38:39;;;;;;;30.27;14.15;;;;;;;4.99;66.96;94098.75;5011365;28;20074;-69
2021/12/09 06:41:08;;;;;;;33.72;12.80;;;;;;;4.93;67.67;94094.66;5011458;28;20076;-63
2021/12/09 06:43:40;;;;;;;23.95;13.35;;;;;;;5.38;66.40;94090.31;5011518;28;20022;-65
2021/12/09 06:46:07;;;;;;;29.17;13.93;;;;;;;4.92;67.08;94088.63;5011300;28;20026;-64
2021/12/09 06:48:33;;;;;;;34.88;15.38;;;;;;;5.22;66.88;94087.22;5015559;28;20030;-62
2021/12/09 06:51:01;;;;;;;31.23;14.52;;;;;;;5.31;66.41;94087.28;5011706;28;20048;-64
2021/12/09 06:53:27;;;;;;;29.15;11.55;;;;;;;4.74;67.06;94072.91;5010762;28;20029;-63
2021/12/09 06:55:53;;;;;;;39.03;16.02;;;;;;;5.17;67.20;94089.19;5012467;28;20072;-65
2021/12/09 06:58:21;;;;;;;30.23;12.73;;;;;;;4.54;68.04;94080.09;5011220;28;20033;-66
2021/12/09 07:00:47;;;;;;;27.13;11.80;;;;;;;4.27;69.54;94090.59;5011908;28;20029;-65
2021/12/09 07:03:16;;;;;;;28.52;13.48;;;;;;;4.29;69.60;94096.34;5014765;28;20105;-63
2021/12/09 07:05:44;;;;;;;27.90;12.70;;;;;;;4.41;69.27;94100.09;5011741;28;20052;-64
2021/12/09 07:08:10;;;;;;;33.95;14.48;;;;;;;4.59;68.82;94101.06;5011940;28;20052;-65
2021/12/09 07:10:35;;;;;;;29.20;13.50;;;;;;;4.57;68.57;94105.09;5011720;28;20021;-67
2021/12/09 07:13:03;;;;;;;32.42;14.30;;;;;;;4.60;69.00;94091.31;5011959;28;20395;-71
2021/12/09 07:15:28;;;;;;;27.95;13.50;;;;;;;4.81;67.98;94104.88;5011902;28;20036;-66
2021/12/09 07:17:53;;;;;;;28.30;14.23;;;;;;;5.41;66.92;94115.28;5014422;28;20026;-65
2021/12/09 07:20:22;;;;;;;21.85;10.05;;;;;;;4.63;68.50;94120.50;5009157;28;20021;-69
2021/12/09 07:22:49;;;;;;;30.83;13.52;;;;;;;4.51;69.12;94120.19;5010778;28;20041;-65
2021/12/09 07:25:16;;;;;;;18.55;10.23;;;;;;;4.22;70.32;94133.56;5011647;28;20029;-62
2021/12/09 07:27:42;;;;;;;25.83;13.35;;;;;;;4.53;69.21;94117.25;5009733;28;20029;-64
2021/12/09 07:30:09;;;;;;;30.90;15.48;;;;;;;4.87;67.30;94116.91;5009521;28;20025;-68
2021/12/09 07:32:35;;;;;;;30.20;14.02;;;;;;;4.42;69.58;94140.34;5010057;28;20036;-64
2021/12/09 07:35:02;;;;;;;45.85;19.40;;;;;;;5.30;67.60;94141.09;5014310;28;20413;-65
2021/12/09 07:37:27;;;;;;;31.65;14.82;;;;;;;4.51;69.26;94125.47;5011671;28;20062;-67
2021/12/09 07:39:52;;;;;;;24.58;12.27;;;;;;;4.50;69.58;94133.63;5011231;28;20050;-66
2021/12/09 07:42:18;;;;;;;30.90;13.80;;;;;;;4.35;69.75;94124.94;5011264;28;20025;-67
2021/12/09 07:44:44;;;;;;;28.52;13.50;;;;;;;4.39;69.80;94141.69;5011498;28;20062;-65
2021/12/09 07:47:10;;;;;;;25.40;12.60;;;;;;;4.29;70.25;94127.94;5010826;28;20531;-67
2021/12/09 07:49:36;;;;;;;30.52;16.67;;;;;;;4.44;69.92;94122.41;5014472;28;20079;-63
2021/12/09 07:52:04;;;;;;;29.45;15.02;;;;;;;4.64;69.35;94132.59;5011103;28;20024;-64
2021/12/09 07:54:29;;;;;;;34.50;14.93;;;;;;;4.71;69.16;94142.75;5011034;28;20034;-64
2021/12/09 07:56:55;;;;;;;26.40;13.70;;;;;;;4.56;69.25;94148.28;5010055;28;20040;-63
2021/12/09 07:59:22;;;;;;;16.48;9.77;;;;;;;4.52;69.21;94150.72;5010705;28;20057;-64
2021/12/09 08:01:48;;;;;;;24.80;13.15;;;;;;;4.47;69.25;94155.28;5010158;28;20076;-64
2021/12/09 08:04:14;;;;;;;24.73;13.60;;;;;;;4.68;69.58;94146.75;5014526;28;20540;-64
2021/12/09 08:06:40;;;;;;;23.13;12.93;;;;;;;4.52;69.02;94150.72;5013525;28;20597;-64
2021/12/09 08:09:08;;;;;;;28.13;13.85;;;;;;;4.39;69.46;94148.81;5010685;28;20112;-64
2021/12/09 08:11:36;;;;;;;35.47;15.95;;;;;;;4.87;68.89;94161.72;5010577;28;20446;-64
2021/12/09 08:14:03;;;;;;;25.48;12.35;;;;;;;4.72;68.66;94172.53;5011000;28;20391;-64
2021/12/09 08:16:31;;;;;;;31.20;16.25;;;;;;;4.84;68.88;94167.56;5010373;28;20038;-64
2021/12/09 08:18:56;;;;;;;32.47;16.33;;;;;;;5.54;65.81;94175.16;5013847;28;20030;-64
2021/12/09 08:21:26;;;;;;;35.25;15.85;;;;;;;5.33;67.74;94182.72;5014086;28;20014;-65
2021/12/09 08:23:53;;;;;;;27.52;12.07;;;;;;;4.55;69.04;94200.16;5010660;28;20034;-63
2021/12/09 08:26:20;;;;;;;33.20;13.68;;;;;;;4.88;68.84;94200.16;5010546;28;20475;-63
2021/12/09 08:28:46;;;;;;;26.33;11.98;;;;;;;4.44;69.08;94196.91;5009351;28;20476;-64
2021/12/09 08:31:13;;;;;;;25.67;13.35;;;;;;;5.89;65.93;94201.91;5010153;28;20100;-64
2021/12/09 08:33:38;;;;;;;30.33;14.68;;;;;;;5.53;66.49;94207.09;5013507;28;20041;-63
2021/12/09 08:36:04;;;;;;;33.47;15.68;;;;;;;5.56;66.13;94215.22;5010422;28;20034;-63
2021/12/09 08:38:29;;;;;;;29.30;14.20;;;;;;;4.84;68.13;94201.81;5009082;28;20018;-63
2021/12/09 08:40:55;;;;;;;31.80;13.38;;;;;;;4.80;67.78;94214.75;5010266;28;20108;-63
2021/12/09 08:43:22;;;;;;;25.67;13.65;;;;;;;4.79;68.45;94207.94;5008958;28;20026;-63
2021/12/09 08:45:49;;;;;;;29.90;14.82;;;;;;;5.01;67.60;94202.00;5009456;28;20356;-63
2021/12/09 08:48:15;;;;;;;31.70;14.40;;;;;;;4.78;68.43;94203.75;5013807;28;20030;-62
2021/12/09 08:50:43;;;;;;;29.33;13.45;;;;;;;4.63;68.74;94211.91;5013596;28;20026;-62
2021/12/09 08:53:14;;;;;;;23.50;11.38;;;;;;;4.39;69.89;94222.53;5009989;28;20033;-62
2021/12/09 08:55:40;;;;;;;27.33;13.93;;;;;;;4.47;69.90;94223.75;5010472;28;20030;-62
2021/12/09 08:58:07;;;;;;;23.88;10.57;;;;;;;4.24;70.13;94220.91;5010362;28;20049;-64
2021/12/09 09:00:33;;;;;;;31.05;14.35;;;;;;;4.50;69.56;94223.16;5008522;28;20030;-64
2021/12/09 09:03:00;;;;;;;21.85;10.88;;;;;;;4.11;70.27;94227.69;5013137;28;20088;-63
2021/12/09 09:05:26;;;;;;;22.10;11.38;;;;;;;4.39;69.96;94233.06;5012377;28;20056;-63
2021/12/09 09:07:53;;;;;;;33.80;15.57;;;;;;;5.01;68.34;94232.84;5008785;28;20034;-64
2021/12/09 09:10:22;;;;;;;29.45;13.65;;;;;;;4.87;68.01;94232.84;5008546;28;20029;-63
2021/12/09 09:12:48;;;;;;;18.13;9.27;;;;;;;4.30;70.35;94247.94;5009836;28;20022;-64
2021/12/09 09:15:16;;;;;;;17.98;9.35;;;;;;;4.28;70.38;94248.25;5008216;28;20022;-64
2021/12/09 09:17:42;;;;;;;37.17;15.98;;;;;;;5.36;67.21;94247.25;5009410;28;20531;-62
2021/12/09 09:20:11;;;;;;;25.08;13.77;;;;;;;4.62;69.06;94247.22;5012938;28;20450;-63
2021/12/09 09:22:37;;;;;;;30.92;14.80;;;;;;;5.01;68.00;94246.03;5008134;28;20030;-63
2021/12/09 09:25:08;;;;;;;33.22;15.75;;;;;;;4.98;68.26;94255.31;5009812;28;20535;-63
2021/12/09 09:27:34;;;;;;;32.60;14.75;;;;;;;4.84;68.42;94257.13;5009668;28;20483;-63
2021/12/09 09:30:00;;;;;;;34.97;17.08;;;;;;;5.26;67.20;94223.72;5007914;28;20395;-63
2021/12/09 09:32:25;;;;;;;31.73;16.50;;;;;;;4.89;68.22;94252.56;5008708;28;20022;-63
2021/12/09 09:34:53;;;;;;;30.23;15.30;;;;;;;4.88;68.18;94244.94;5014232;28;20025;-63
2021/12/09 09:37:20;;;;;;;34.78;17.60;;;;;;;5.06;67.73;94244.09;5009883;28;20556;-63
2021/12/09 09:39:47;;;;;;;27.98;15.20;;;;;;;4.69;68.64;94253.66;5008925;28;20029;-63
2021/12/09 09:44:47;;;;;;;35.97;16.42;;;;;;;4.87;68.18;94244.16;5009924;28;20041;-63
2021/12/09 09:47:14;;;;;;;30.50;14.07;;;;;;;4.99;68.02;94246.34;5007938;28;20045;-64
2021/12/09 09:49:40;;;;;;;35.30;17.58;;;;;;;5.15;68.46;94245.00;5010508;28;20026;-64
2021/12/09 09:52:08;;;;;;;41.13;22.40;;;;;;;5.47;67.15;94246.75;5009924;28;20038;-63
2021/12/09 09:54:35;;;;;;;42.35;22.08;;;;;;;5.27;68.33;94251.63;5009699;28;20556;-64
2021/12/09 09:57:00;;;;;;;41.55;16.60;;;;;;;4.65;69.23;94244.00;5009778;28;20048;-63
2021/12/09 09:59:26;;;;;;;51.67;19.10;;;;;;;4.84;68.72;94259.78;5007715;28;20026;-64
2021/12/09 10:01:55;;;;;;;46.55;21.83;;;;;;;4.70;68.66;94238.63;5008960;28;20026;-63
2021/12/09 10:04:32;;;;;;;25.08;12.65;;;;;;;4.81;68.61;94266.41;5012817;28;20119;-63
2021/12/09 10:06:59;;;;;;;44.10;18.90;;;;;;;4.84;68.34;94272.94;5005839;28;20022;-64
2021/12/09 10:09:25;;;;;;;57.33;23.73;;;;;;;4.91;68.79;94263.59;5007822;28;20025;-64
2021/12/09 10:11:51;;;;;;;49.00;19.67;;;;;;;4.70;68.59;94260.50;5008935;28;20511;-64
2021/12/09 10:14:19;;;;;;;43.95;22.48;;;;;;;5.10;68.36;94255.63;5007964;28;20502;-63
2021/12/09 10:16:46;;;;;;;23.90;12.70;;;;;;;4.73;68.81;94261.00;5008227;28;20036;-64
2021/12/09 10:19:18;;;;;;;30.50;16.02;;;;;;;5.01;68.33;94262.63;5012378;28;20446;-65
2021/12/09 10:21:44;;;;;;;43.90;19.95;;;;;;;4.93;69.17;94258.03;5007307;28;20033;-63
2021/12/09 10:24:10;;;;;;;51.05;23.48;;;;;;;5.08;68.01;94243.81;5009068;28;20030;-64
2021/12/09 10:26:38;;;;;;;44.70;23.13;;;;;;;5.96;65.83;94269.06;5008613;28;20030;-63
2021/12/09 10:29:29;;;;;;;31.40;17.02;;;;;;;4.75;68.61;94264.13;5011522;28;20096;-64
2021/12/09 10:32:05;;;;;;;37.50;18.08;;;;;;;5.30;68.34;94261.59;5012600;28;20080;-64
2021/12/09 10:34:42;;;;;;;38.30;17.73;;;;;;;4.91;67.67;94260.97;5015825;28;20684;-64
2021/12/09 10:37:22;;;;;;;29.77;15.93;;;;;;;4.64;69.55;94266.91;5011397;28;20033;-64
2021/12/09 10:39:58;;;;;;;42.83;20.95;;;;;;;5.51;67.53;94268.06;5012277;28;20093;-64
2021/12/09 10:42:33;;;;;;;27.60;14.85;;;;;;;5.01;67.59;94265.25;5012326;28;20030;-64
2021/12/09 10:45:16;;;;;;;23.35;12.52;;;;;;;5.19;68.03;94268.94;5012472;28;20030;-64
2021/12/09 10:47:51;;;;;;;38.85;18.77;;;;;;;5.05;68.38;94274.16;5011011;28;20531;-65
2021/12/09 10:50:28;;;;;;;32.83;17.27;;;;;;;4.87;69.08;94265.25;5015975;28;20018;-68
2021/12/09 10:53:17;;;;;;;27.40;15.75;;;;;;;5.16;67.90;94262.38;5011103;28;20034;-65
2021/12/09 10:55:43;;;;;;;47.55;23.30;;;;;;;6.12;65.12;94277.44;5011211;28;20064;-65
2021/12/09 10:58:12;;;;;;;39.42;20.63;;;;;;;5.48;66.95;94274.72;5012366;28;20448;-66
2021/12/09 11:00:43;;;;;;;31.20;15.57;;;;;;;5.50;66.62;94279.69;5010419;28;20022;-66
2021/12/09 11:03:19;;;;;;;33.22;16.02;;;;;;;5.07;67.29;94252.81;5010302;28;20026;-61
2021/12/09 11:05:51;;;;;;;18.33;9.15;;;;;;;4.53;69.48;94281.31;5022129;28;20111;-60
2021/12/09 11:08:17;;;;;;;40.38;17.70;;;;;;;4.85;69.31;94277.91;5011332;28;20542;-61
2021/12/09 11:10:48;;;;;;;40.67;19.27;;;;;;;5.38;68.05;94274.13;5010358;28;20034;-60
2021/12/09 11:13:17;;;;;;;45.80;17.90;;;;;;;4.97;68.82;94279.34;5010334;28;20022;-61
2021/12/09 11:15:54;;;;;;;25.48;13.70;;;;;;;5.22;67.59;94276.25;5011770;28;20029;-60
2021/12/09 11:18:39;;;;;;;26.73;11.40;;;;;;;4.89;68.68;94289.44;5009918;28;20026;-59
2021/12/09 11:21:11;;;;;;;33.70;13.80;;;;;;;5.27;67.97;94280.63;5014892;28;20109;-58
2021/12/09 11:24:08;;;;;;;32.85;17.05;;;;;;;5.32;67.31;94286.59;5011286;28;20033;-59
2021/12/09 11:27:00;;;;;;;25.65;10.90;;;;;;;4.75;68.76;94282.56;5011697;28;20072;-59
2021/12/09 11:29:27;;;;;;;25.00;12.52;;;;;;;4.94;68.61;94289.38;5010992;28;20030;-59
2021/12/09 11:32:13;;;;;;;36.00;15.77;;;;;;;5.53;67.30;94276.50;5011387;28;20260;-59